sensor_id;sensor_type;location;lat;lon;timestamp;temperature;humidity
22532;DHT22;11432;46.924;7.114;2024-02-23T00:01:07;5.60;1.00
22532;DHT22;11432;46.924;7.114;2024-02-23T00:03:33;5.70;99.90
22532;DHT22;11432;46.924;7.114;2024-02-23T00:06:01;5.70;55.40
22532;DHT22;11432;46.924;7.114;2024-02-23T00:08:27;5.80;1.00
22532;DHT22;11432;46.924;7.114;2024-02-23T00:10:52;5.80;1.00
22532;DHT22;11432;46.924;7.114;2024-02-23T00:13:18;5.80;1.00
22532;DHT22;11432;46.924;7.114;2024-02-23T00:15:43;5.70;99.90
22532;DHT22;11432;46.924;7.114;2024-02-23T00:18:09;5.70;1.00
22532;DHT22;11432;46.924;7.114;2024-02-23T00:20:35;5.70;1.00
22532;DHT22;11432;46.924;7.114;2024-02-23T00:23:02;5.70;1.00
22532;DHT22;11432;46.924;7.114;2024-02-23T00:25:28;5.70;99.90
22532;DHT22;11432;46.924;7.114;2024-02-23T00:27:53;5.70;1.00
22532;DHT22;11432;46.924;7.114;2024-02-23T00:30:19;5.70;1.00
22532;DHT22;11432;46.924;7.114;2024-02-23T00:32:45;5.70;99.90
22532;DHT22;11432;46.924;7.114;2024-02-23T00:35:10;5.70;1.00
22532;DHT22;11432;46.924;7.114;2024-02-23T00:37:36;5.70;99.90
22532;DHT22;11432;46.924;7.114;2024-02-23T00:40:03;5.80;99.90
22532;DHT22;11432;46.924;7.114;2024-02-23T00:42:30;5.80;1.00
22532;DHT22;11432;46.924;7.114;2024-02-23T00:44:56;5.80;99.90
22532;DHT22;11432;46.924;7.114;2024-02-23T00:47:21;5.90;21.20
22532;DHT22;11432;46.924;7.114;2024-02-23T00:49:47;5.90;1.00
22532;DHT22;11432;46.924;7.114;2024-02-23T00:52:13;5.90;1.00
22532;DHT22;11432;46.924;7.114;2024-02-23T00:54:38;5.90;1.00
22532;DHT22;11432;46.924;7.114;2024-02-23T00:57:04;5.90;99.90
22532;DHT22;11432;46.924;7.114;2024-02-23T00:59:29;6.00;99.90
22532;DHT22;11432;46.924;7.114;2024-02-23T01:01:55;5.90;99.90
22532;DHT22;11432;46.924;7.114;2024-02-23T01:04:21;5.90;99.90
22532;DHT22;11432;46.924;7.114;2024-02-23T01:06:46;5.90;99.90
22532;DHT22;11432;46.924;7.114;2024-02-23T01:09:12;5.90;99.90
22532;DHT22;11432;46.924;7.114;2024-02-23T01:11:38;5.90;99.90
22532;DHT22;11432;46.924;7.114;2024-02-23T01:14:04;5.90;99.90
22532;DHT22;11432;46.924;7.114;2024-02-23T01:16:32;5.80;1.00
22532;DHT22;11432;46.924;7.114;2024-02-23T01:18:58;5.80;99.90
22532;DHT22;11432;46.924;7.114;2024-02-23T01:21:23;5.80;1.00
22532;DHT22;11432;46.924;7.114;2024-02-23T01:23:49;5.80;99.90
22532;DHT22;11432;46.924;7.114;2024-02-23T01:26:14;5.80;1.00
22532;DHT22;11432;46.924;7.114;2024-02-23T01:28:40;5.90;99.90
22532;DHT22;11432;46.924;7.114;2024-02-23T01:31:09;5.90;1.00
22532;DHT22;11432;46.924;7.114;2024-02-23T01:33:36;5.80;99.90
22532;DHT22;11432;46.924;7.114;2024-02-23T01:36:04;5.80;99.90
22532;DHT22;11432;46.924;7.114;2024-02-23T01:38:30;5.90;1.00
22532;DHT22;11432;46.924;7.114;2024-02-23T01:40:58;5.90;1.00
22532;DHT22;11432;46.924;7.114;2024-02-23T01:43:24;5.80;1.00
22532;DHT22;11432;46.924;7.114;2024-02-23T01:45:49;5.80;1.00
22532;DHT22;11432;46.924;7.114;2024-02-23T01:48:15;5.70;1.00
22532;DHT22;11432;46.924;7.114;2024-02-23T01:50:42;5.60;99.90
22532;DHT22;11432;46.924;7.114;2024-02-23T01:53:10;5.60;99.90
22532;DHT22;11432;46.924;7.114;2024-02-23T01:55:36;5.50;99.90
22532;DHT22;11432;46.924;7.114;2024-02-23T01:58:04;5.50;99.90
22532;DHT22;11432;46.924;7.114;2024-02-23T02:00:30;5.50;1.00
22532;DHT22;11432;46.924;7.114;2024-02-23T02:02:56;5.60;1.00
22532;DHT22;11432;46.924;7.114;2024-02-23T02:05:22;5.60;1.00
22532;DHT22;11432;46.924;7.114;2024-02-23T02:07:50;5.60;1.00
22532;DHT22;11432;46.924;7.114;2024-02-23T02:10:20;5.60;1.00
22532;DHT22;11432;46.924;7.114;2024-02-23T02:12:46;5.60;1.00
22532;DHT22;11432;46.924;7.114;2024-02-23T02:15:11;5.60;1.00
22532;DHT22;11432;46.924;7.114;2024-02-23T02:17:37;5.50;1.00
22532;DHT22;11432;46.924;7.114;2024-02-23T02:20:03;5.50;99.90
22532;DHT22;11432;46.924;7.114;2024-02-23T02:22:33;5.50;99.90
22532;DHT22;11432;46.924;7.114;2024-02-23T02:24:59;5.60;99.90
22532;DHT22;11432;46.924;7.114;2024-02-23T02:27:24;5.60;62.40
22532;DHT22;11432;46.924;7.114;2024-02-23T02:29:50;5.60;35.50
22532;DHT22;11432;46.924;7.114;2024-02-23T02:32:16;5.50;1.00
22532;DHT22;11432;46.924;7.114;2024-02-23T02:34:42;5.50;1.00
22532;DHT22;11432;46.924;7.114;2024-02-23T02:37:07;5.50;1.00
22532;DHT22;11432;46.924;7.114;2024-02-23T02:39:34;5.50;1.00
22532;DHT22;11432;46.924;7.114;2024-02-23T02:41:59;5.50;1.00
22532;DHT22;11432;46.924;7.114;2024-02-23T02:44:25;5.40;1.00
22532;DHT22;11432;46.924;7.114;2024-02-23T02:46:52;5.40;1.00
22532;DHT22;11432;46.924;7.114;2024-02-23T02:49:17;5.40;1.00
22532;DHT22;11432;46.924;7.114;2024-02-23T02:51:43;5.30;1.00
22532;DHT22;11432;46.924;7.114;2024-02-23T02:54:10;5.20;7.50
22532;DHT22;11432;46.924;7.114;2024-02-23T02:56:36;5.20;1.00
22532;DHT22;11432;46.924;7.114;2024-02-23T02:59:01;5.20;1.00
22532;DHT22;11432;46.924;7.114;2024-02-23T03:01:27;5.20;1.00
22532;DHT22;11432;46.924;7.114;2024-02-23T03:03:52;5.10;1.00
22532;DHT22;11432;46.924;7.114;2024-02-23T03:06:18;5.00;1.00
22532;DHT22;11432;46.924;7.114;2024-02-23T03:08:44;4.90;18.10
22532;DHT22;11432;46.924;7.114;2024-02-23T03:11:09;4.90;4.60
22532;DHT22;11432;46.924;7.114;2024-02-23T03:13:35;4.90;1.00
22532;DHT22;11432;46.924;7.114;2024-02-23T03:16:01;4.90;1.00
22532;DHT22;11432;46.924;7.114;2024-02-23T03:18:26;4.80;1.00
22532;DHT22;11432;46.924;7.114;2024-02-23T03:20:55;4.80;1.00
22532;DHT22;11432;46.924;7.114;2024-02-23T03:23:20;4.70;1.00
22532;DHT22;11432;46.924;7.114;2024-02-23T03:25:46;4.70;1.00
22532;DHT22;11432;46.924;7.114;2024-02-23T03:28:12;4.60;1.00
22532;DHT22;11432;46.924;7.114;2024-02-23T03:30:37;4.60;1.00
22532;DHT22;11432;46.924;7.114;2024-02-23T03:33:03;4.60;1.00
22532;DHT22;11432;46.924;7.114;2024-02-23T03:35:28;4.60;1.00
22532;DHT22;11432;46.924;7.114;2024-02-23T03:37:54;4.60;1.00
22532;DHT22;11432;46.924;7.114;2024-02-23T03:40:20;4.50;1.00
22532;DHT22;11432;46.924;7.114;2024-02-23T03:42:45;4.50;1.00
22532;DHT22;11432;46.924;7.114;2024-02-23T03:45:11;4.50;1.00
22532;DHT22;11432;46.924;7.114;2024-02-23T03:47:38;4.50;1.00
22532;DHT22;11432;46.924;7.114;2024-02-23T03:50:04;4.40;1.00
22532;DHT22;11432;46.924;7.114;2024-02-23T03:52:30;4.40;1.00
22532;DHT22;11432;46.924;7.114;2024-02-23T03:54:55;4.30;5.60
22532;DHT22;11432;46.924;7.114;2024-02-23T03:57:21;4.30;25.10
22532;DHT22;11432;46.924;7.114;2024-02-23T03:59:53;4.30;46.40
22532;DHT22;11432;46.924;7.114;2024-02-23T04:02:19;4.20;62.80
22532;DHT22;11432;46.924;7.114;2024-02-23T04:04:45;4.20;69.30
22532;DHT22;11432;46.924;7.114;2024-02-23T04:07:10;4.20;99.90
22532;DHT22;11432;46.924;7.114;2024-02-23T04:09:36;4.20;99.90
22532;DHT22;11432;46.924;7.114;2024-02-23T04:12:02;4.10;99.90
22532;DHT22;11432;46.924;7.114;2024-02-23T04:14:27;4.10;99.90
22532;DHT22;11432;46.924;7.114;2024-02-23T04:16:53;4.10;99.90
22532;DHT22;11432;46.924;7.114;2024-02-23T04:19:19;4.10;99.90
22532;DHT22;11432;46.924;7.114;2024-02-23T04:21:44;4.00;99.90
22532;DHT22;11432;46.924;7.114;2024-02-23T04:24:10;4.00;99.90
22532;DHT22;11432;46.924;7.114;2024-02-23T04:26:36;3.90;99.90
22532;DHT22;11432;46.924;7.114;2024-02-23T04:29:01;3.90;99.90
22532;DHT22;11432;46.924;7.114;2024-02-23T04:31:27;3.90;99.90
22532;DHT22;11432;46.924;7.114;2024-02-23T04:33:52;3.90;99.90
22532;DHT22;11432;46.924;7.114;2024-02-23T04:36:21;3.90;99.90
22532;DHT22;11432;46.924;7.114;2024-02-23T04:38:47;3.90;99.90
22532;DHT22;11432;46.924;7.114;2024-02-23T04:41:12;3.80;99.90
22532;DHT22;11432;46.924;7.114;2024-02-23T04:43:38;3.80;99.90
22532;DHT22;11432;46.924;7.114;2024-02-23T04:46:03;3.70;99.90
22532;DHT22;11432;46.924;7.114;2024-02-23T04:48:29;3.70;99.90
22532;DHT22;11432;46.924;7.114;2024-02-23T04:50:57;3.80;99.90
22532;DHT22;11432;46.924;7.114;2024-02-23T04:53:23;3.80;99.90
22532;DHT22;11432;46.924;7.114;2024-02-23T04:55:48;3.80;99.90
22532;DHT22;11432;46.924;7.114;2024-02-23T04:58:14;3.70;99.90
22532;DHT22;11432;46.924;7.114;2024-02-23T05:00:39;3.60;1.00
22532;DHT22;11432;46.924;7.114;2024-02-23T05:03:05;3.60;1.00
22532;DHT22;11432;46.924;7.114;2024-02-23T05:05:31;3.50;99.90
22532;DHT22;11432;46.924;7.114;2024-02-23T05:07:57;3.40;1.00
22532;DHT22;11432;46.924;7.114;2024-02-23T05:10:23;3.30;99.90
22532;DHT22;11432;46.924;7.114;2024-02-23T05:12:49;3.20;99.90
22532;DHT22;11432;46.924;7.114;2024-02-23T05:15:15;3.20;99.90
22532;DHT22;11432;46.924;7.114;2024-02-23T05:17:40;3.10;94.80
22532;DHT22;11432;46.924;7.114;2024-02-23T05:20:07;3.10;1.00
22532;DHT22;11432;46.924;7.114;2024-02-23T05:22:36;3.10;1.00
22532;DHT22;11432;46.924;7.114;2024-02-23T05:25:01;3.20;27.20
22532;DHT22;11432;46.924;7.114;2024-02-23T05:27:27;3.30;1.00
22532;DHT22;11432;46.924;7.114;2024-02-23T05:29:53;3.50;1.00
22532;DHT22;11432;46.924;7.114;2024-02-23T05:32:18;3.60;1.00
22532;DHT22;11432;46.924;7.114;2024-02-23T05:34:44;3.60;99.90
22532;DHT22;11432;46.924;7.114;2024-02-23T05:37:10;3.60;99.90
22532;DHT22;11432;46.924;7.114;2024-02-23T05:39:36;3.50;99.90
22532;DHT22;11432;46.924;7.114;2024-02-23T05:42:03;3.60;99.90
22532;DHT22;11432;46.924;7.114;2024-02-23T05:44:29;3.50;99.90
22532;DHT22;11432;46.924;7.114;2024-02-23T05:46:56;3.50;99.90
22532;DHT22;11432;46.924;7.114;2024-02-23T05:49:21;3.60;99.90
22532;DHT22;11432;46.924;7.114;2024-02-23T05:51:47;3.70;99.90
22532;DHT22;11432;46.924;7.114;2024-02-23T05:54:13;3.90;84.20
22532;DHT22;11432;46.924;7.114;2024-02-23T05:56:38;4.00;9.40
22532;DHT22;11432;46.924;7.114;2024-02-23T05:59:04;4.00;1.00
22532;DHT22;11432;46.924;7.114;2024-02-23T06:01:29;4.00;1.00
22532;DHT22;11432;46.924;7.114;2024-02-23T06:03:55;4.00;1.00
22532;DHT22;11432;46.924;7.114;2024-02-23T06:06:21;4.00;1.00
22532;DHT22;11432;46.924;7.114;2024-02-23T06:08:46;4.00;1.00
22532;DHT22;11432;46.924;7.114;2024-02-23T06:11:12;3.90;1.00
22532;DHT22;11432;46.924;7.114;2024-02-23T06:13:38;4.00;1.00
22532;DHT22;11432;46.924;7.114;2024-02-23T06:16:05;4.00;1.00
22532;DHT22;11432;46.924;7.114;2024-02-23T06:18:35;3.90;1.00
22532;DHT22;11432;46.924;7.114;2024-02-23T06:21:01;3.80;1.00
22532;DHT22;11432;46.924;7.114;2024-02-23T06:23:27;3.80;1.00
22532;DHT22;11432;46.924;7.114;2024-02-23T06:25:53;3.70;1.00
22532;DHT22;11432;46.924;7.114;2024-02-23T06:28:18;3.60;1.00
22532;DHT22;11432;46.924;7.114;2024-02-23T06:30:44;3.60;1.00
22532;DHT22;11432;46.924;7.114;2024-02-23T06:33:09;3.60;1.00
22532;DHT22;11432;46.924;7.114;2024-02-23T06:35:35;3.60;1.00
22532;DHT22;11432;46.924;7.114;2024-02-23T06:38:01;3.60;29.80
22532;DHT22;11432;46.924;7.114;2024-02-23T06:40:27;3.50;99.90
22532;DHT22;11432;46.924;7.114;2024-02-23T06:42:52;3.40;99.90
22532;DHT22;11432;46.924;7.114;2024-02-23T06:45:18;3.40;99.90
22532;DHT22;11432;46.924;7.114;2024-02-23T06:47:44;3.30;99.90
22532;DHT22;11432;46.924;7.114;2024-02-23T06:50:10;3.20;1.00
22532;DHT22;11432;46.924;7.114;2024-02-23T06:52:36;3.20;1.00
22532;DHT22;11432;46.924;7.114;2024-02-23T06:56:49;3.10;1.00
22532;DHT22;11432;46.924;7.114;2024-02-23T06:59:15;3.10;1.00
22532;DHT22;11432;46.924;7.114;2024-02-23T07:01:50;3.00;1.00
22532;DHT22;11432;46.924;7.114;2024-02-23T07:04:16;3.00;1.00
22532;DHT22;11432;46.924;7.114;2024-02-23T07:06:41;3.00;99.90
22532;DHT22;11432;46.924;7.114;2024-02-23T07:09:07;3.10;1.00
22532;DHT22;11432;46.924;7.114;2024-02-23T07:11:33;3.10;99.90
22532;DHT22;11432;46.924;7.114;2024-02-23T07:13:59;3.20;1.00
22532;DHT22;11432;46.924;7.114;2024-02-23T07:16:24;3.20;1.00
22532;DHT22;11432;46.924;7.114;2024-02-23T07:18:50;3.10;1.00
22532;DHT22;11432;46.924;7.114;2024-02-23T07:21:19;3.10;1.00
22532;DHT22;11432;46.924;7.114;2024-02-23T07:23:44;3.10;99.90
22532;DHT22;11432;46.924;7.114;2024-02-23T07:26:10;3.10;99.90
22532;DHT22;11432;46.924;7.114;2024-02-23T07:28:35;3.10;99.90
22532;DHT22;11432;46.924;7.114;2024-02-23T07:31:01;3.20;1.00
22532;DHT22;11432;46.924;7.114;2024-02-23T07:33:27;3.20;1.00
22532;DHT22;11432;46.924;7.114;2024-02-23T07:35:52;3.30;99.90
22532;DHT22;11432;46.924;7.114;2024-02-23T07:38:18;3.40;1.00
22532;DHT22;11432;46.924;7.114;2024-02-23T07:40:44;3.50;99.90
22532;DHT22;11432;46.924;7.114;2024-02-23T07:43:10;4.10;1.00
22532;DHT22;11432;46.924;7.114;2024-02-23T07:45:37;4.10;1.00
22532;DHT22;11432;46.924;7.114;2024-02-23T07:48:03;4.20;1.00
22532;DHT22;11432;46.924;7.114;2024-02-23T07:50:29;4.30;99.90
22532;DHT22;11432;46.924;7.114;2024-02-23T07:52:54;4.30;99.90
22532;DHT22;11432;46.924;7.114;2024-02-23T07:55:20;4.40;99.90
22532;DHT22;11432;46.924;7.114;2024-02-23T07:57:46;4.60;99.90
22532;DHT22;11432;46.924;7.114;2024-02-23T08:00:11;4.60;99.90
22532;DHT22;11432;46.924;7.114;2024-02-23T08:02:38;4.70;99.90
22532;DHT22;11432;46.924;7.114;2024-02-23T08:05:04;4.80;99.90
22532;DHT22;11432;46.924;7.114;2024-02-23T08:07:29;5.00;99.90
22532;DHT22;11432;46.924;7.114;2024-02-23T08:09:56;5.00;1.00
22532;DHT22;11432;46.924;7.114;2024-02-23T08:12:22;5.00;1.00
22532;DHT22;11432;46.924;7.114;2024-02-23T08:14:48;5.20;1.00
22532;DHT22;11432;46.924;7.114;2024-02-23T08:17:15;5.20;1.00
22532;DHT22;11432;46.924;7.114;2024-02-23T08:19:40;5.20;1.00
22532;DHT22;11432;46.924;7.114;2024-02-23T08:22:06;5.20;1.00
22532;DHT22;11432;46.924;7.114;2024-02-23T08:24:31;5.30;1.00
22532;DHT22;11432;46.924;7.114;2024-02-23T08:26:57;5.30;1.00
22532;DHT22;11432;46.924;7.114;2024-02-23T08:29:22;5.40;1.00
22532;DHT22;11432;46.924;7.114;2024-02-23T08:31:48;5.50;1.00
22532;DHT22;11432;46.924;7.114;2024-02-23T08:34:14;5.50;1.00
22532;DHT22;11432;46.924;7.114;2024-02-23T08:36:40;5.60;1.00
22532;DHT22;11432;46.924;7.114;2024-02-23T08:39:05;5.60;1.00
22532;DHT22;11432;46.924;7.114;2024-02-23T08:41:31;5.60;1.00
22532;DHT22;11432;46.924;7.114;2024-02-23T08:43:56;5.60;1.00
22532;DHT22;11432;46.924;7.114;2024-02-23T08:46:22;5.40;1.00
22532;DHT22;11432;46.924;7.114;2024-02-23T08:48:48;5.50;1.00
22532;DHT22;11432;46.924;7.114;2024-02-23T08:51:13;5.60;1.00
22532;DHT22;11432;46.924;7.114;2024-02-23T08:53:39;5.50;1.00
22532;DHT22;11432;46.924;7.114;2024-02-23T08:56:07;5.60;1.00
22532;DHT22;11432;46.924;7.114;2024-02-23T08:58:33;5.70;1.00
22532;DHT22;11432;46.924;7.114;2024-02-23T09:00:59;5.60;1.00
22532;DHT22;11432;46.924;7.114;2024-02-23T09:03:24;5.70;1.00
22532;DHT22;11432;46.924;7.114;2024-02-23T09:05:50;5.80;1.00
22532;DHT22;11432;46.924;7.114;2024-02-23T09:08:16;6.00;1.00
22532;DHT22;11432;46.924;7.114;2024-02-23T09:10:41;6.20;1.00
22532;DHT22;11432;46.924;7.114;2024-02-23T09:13:07;6.20;1.00
22532;DHT22;11432;46.924;7.114;2024-02-23T09:15:32;6.20;1.00
22532;DHT22;11432;46.924;7.114;2024-02-23T09:17:58;6.20;1.00
22532;DHT22;11432;46.924;7.114;2024-02-23T09:20:23;6.30;1.00
22532;DHT22;11432;46.924;7.114;2024-02-23T09:22:49;6.30;1.00
22532;DHT22;11432;46.924;7.114;2024-02-23T09:25:15;6.40;1.00
22532;DHT22;11432;46.924;7.114;2024-02-23T09:27:40;6.50;1.00
22532;DHT22;11432;46.924;7.114;2024-02-23T09:30:12;6.50;1.00
22532;DHT22;11432;46.924;7.114;2024-02-23T09:32:38;6.60;1.00
22532;DHT22;11432;46.924;7.114;2024-02-23T09:35:04;6.60;1.00
22532;DHT22;11432;46.924;7.114;2024-02-23T09:37:31;6.80;1.00
22532;DHT22;11432;46.924;7.114;2024-02-23T09:39:57;6.90;1.00
22532;DHT22;11432;46.924;7.114;2024-02-23T09:42:23;7.00;1.00
22532;DHT22;11432;46.924;7.114;2024-02-23T09:44:58;7.00;1.00
22532;DHT22;11432;46.924;7.114;2024-02-23T09:47:27;7.00;1.00
22532;DHT22;11432;46.924;7.114;2024-02-23T09:49:54;7.00;1.00
22532;DHT22;11432;46.924;7.114;2024-02-23T09:52:21;7.10;1.00
22532;DHT22;11432;46.924;7.114;2024-02-23T09:54:47;7.20;1.00
22532;DHT22;11432;46.924;7.114;2024-02-23T09:57:14;7.30;1.00
22532;DHT22;11432;46.924;7.114;2024-02-23T09:59:41;7.50;1.00
22532;DHT22;11432;46.924;7.114;2024-02-23T10:02:14;7.50;1.00
22532;DHT22;11432;46.924;7.114;2024-02-23T10:04:41;7.50;1.00
22532;DHT22;11432;46.924;7.114;2024-02-23T10:07:08;7.70;1.00
22532;DHT22;11432;46.924;7.114;2024-02-23T10:09:34;7.80;1.00
22532;DHT22;11432;46.924;7.114;2024-02-23T10:12:00;8.00;1.00
22532;DHT22;11432;46.924;7.114;2024-02-23T10:14:26;8.10;1.00
22532;DHT22;11432;46.924;7.114;2024-02-23T10:16:51;8.10;1.00
22532;DHT22;11432;46.924;7.114;2024-02-23T10:19:22;8.30;1.00
22532;DHT22;11432;46.924;7.114;2024-02-23T10:21:48;8.30;99.90
22532;DHT22;11432;46.924;7.114;2024-02-23T10:24:17;8.30;99.90
22532;DHT22;11432;46.924;7.114;2024-02-23T10:26:43;8.40;99.90
22532;DHT22;11432;46.924;7.114;2024-02-23T10:29:09;8.30;99.90
22532;DHT22;11432;46.924;7.114;2024-02-23T10:31:35;8.60;99.90
22532;DHT22;11432;46.924;7.114;2024-02-23T10:34:09;8.80;99.90
22532;DHT22;11432;46.924;7.114;2024-02-23T10:36:41;8.60;99.90
22532;DHT22;11432;46.924;7.114;2024-02-23T10:39:08;8.70;99.90
22532;DHT22;11432;46.924;7.114;2024-02-23T10:41:35;8.80;99.90
22532;DHT22;11432;46.924;7.114;2024-02-23T10:44:03;9.00;99.90
22532;DHT22;11432;46.924;7.114;2024-02-23T10:46:33;9.00;99.90
22532;DHT22;11432;46.924;7.114;2024-02-23T10:48:59;8.80;99.90
22532;DHT22;11432;46.924;7.114;2024-02-23T10:51:25;8.80;99.90
22532;DHT22;11432;46.924;7.114;2024-02-23T10:53:52;9.00;99.90
22532;DHT22;11432;46.924;7.114;2024-02-23T10:56:18;9.10;99.90
22532;DHT22;11432;46.924;7.114;2024-02-23T10:58:45;9.30;99.90
22532;DHT22;11432;46.924;7.114;2024-02-23T11:01:12;9.60;99.90
22532;DHT22;11432;46.924;7.114;2024-02-23T11:03:38;10.20;99.90
22532;DHT22;11432;46.924;7.114;2024-02-23T11:06:07;10.50;99.90
22532;DHT22;11432;46.924;7.114;2024-02-23T11:08:33;11.40;99.90
22532;DHT22;11432;46.924;7.114;2024-02-23T11:11:08;11.40;99.90
22532;DHT22;11432;46.924;7.114;2024-02-23T11:13:37;11.50;99.90
22532;DHT22;11432;46.924;7.114;2024-02-23T11:16:03;11.70;99.90
22532;DHT22;11432;46.924;7.114;2024-02-23T11:18:30;12.20;99.90
22532;DHT22;11432;46.924;7.114;2024-02-23T11:21:00;12.80;99.90
22532;DHT22;11432;46.924;7.114;2024-02-23T11:23:27;12.80;99.90
22532;DHT22;11432;46.924;7.114;2024-02-23T11:28:29;12.70;99.90
22532;DHT22;11432;46.924;7.114;2024-02-23T11:30:54;12.20;99.90
22532;DHT22;11432;46.924;7.114;2024-02-23T11:33:29;12.40;99.90
22532;DHT22;11432;46.924;7.114;2024-02-23T11:36:09;12.80;99.90
22532;DHT22;11432;46.924;7.114;2024-02-23T11:38:35;12.20;99.90
22532;DHT22;11432;46.924;7.114;2024-02-23T11:41:01;12.40;99.90
22532;DHT22;11432;46.924;7.114;2024-02-23T11:43:27;13.20;99.90
22532;DHT22;11432;46.924;7.114;2024-02-23T11:45:53;13.10;99.90
22532;DHT22;11432;46.924;7.114;2024-02-23T11:48:19;13.90;99.90
22532;DHT22;11432;46.924;7.114;2024-02-23T11:50:45;13.40;99.90
22532;DHT22;11432;46.924;7.114;2024-02-23T11:53:10;13.30;99.90
22532;DHT22;11432;46.924;7.114;2024-02-23T11:55:36;13.20;99.90
22532;DHT22;11432;46.924;7.114;2024-02-23T11:58:02;12.70;99.90
22532;DHT22;11432;46.924;7.114;2024-02-23T12:00:28;12.10;99.90
22532;DHT22;11432;46.924;7.114;2024-02-23T12:02:55;10.60;99.90
22532;DHT22;11432;46.924;7.114;2024-02-23T12:05:21;10.70;99.90
22532;DHT22;11432;46.924;7.114;2024-02-23T12:07:47;11.90;99.90
22532;DHT22;11432;46.924;7.114;2024-02-23T12:10:13;12.60;99.90
22532;DHT22;11432;46.924;7.114;2024-02-23T12:12:39;12.60;99.90
22532;DHT22;11432;46.924;7.114;2024-02-23T12:15:06;12.70;99.90
22532;DHT22;11432;46.924;7.114;2024-02-23T12:17:35;11.80;99.90
22532;DHT22;11432;46.924;7.114;2024-02-23T12:20:01;12.20;99.90
22532;DHT22;11432;46.924;7.114;2024-02-23T12:22:27;12.80;99.90
22532;DHT22;11432;46.924;7.114;2024-02-23T12:24:53;13.40;99.90
22532;DHT22;11432;46.924;7.114;2024-02-23T12:27:19;13.60;99.90
22532;DHT22;11432;46.924;7.114;2024-02-23T12:29:54;13.50;99.90
22532;DHT22;11432;46.924;7.114;2024-02-23T12:32:21;13.40;99.90
22532;DHT22;11432;46.924;7.114;2024-02-23T12:34:47;13.30;99.90
22532;DHT22;11432;46.924;7.114;2024-02-23T12:37:19;12.50;99.90
22532;DHT22;11432;46.924;7.114;2024-02-23T12:39:45;12.60;99.90
22532;DHT22;11432;46.924;7.114;2024-02-23T12:42:11;11.10;99.90
22532;DHT22;11432;46.924;7.114;2024-02-23T12:44:36;10.70;99.90
22532;DHT22;11432;46.924;7.114;2024-02-23T12:47:02;11.70;99.90
22532;DHT22;11432;46.924;7.114;2024-02-23T12:49:28;10.70;99.90
22532;DHT22;11432;46.924;7.114;2024-02-23T12:51:55;12.00;99.90
22532;DHT22;11432;46.924;7.114;2024-02-23T12:54:20;13.10;99.90
22532;DHT22;11432;46.924;7.114;2024-02-23T12:56:46;14.80;99.90
22532;DHT22;11432;46.924;7.114;2024-02-23T12:59:11;14.20;99.90
22532;DHT22;11432;46.924;7.114;2024-02-23T13:01:37;14.80;99.90
22532;DHT22;11432;46.924;7.114;2024-02-23T13:04:04;15.60;99.90
22532;DHT22;11432;46.924;7.114;2024-02-23T13:06:38;15.60;99.90
22532;DHT22;11432;46.924;7.114;2024-02-23T13:09:06;14.90;99.90
22532;DHT22;11432;46.924;7.114;2024-02-23T13:11:34;15.30;99.90
22532;DHT22;11432;46.924;7.114;2024-02-23T13:14:00;15.30;99.90
22532;DHT22;11432;46.924;7.114;2024-02-23T13:16:25;14.80;99.90
22532;DHT22;11432;46.924;7.114;2024-02-23T13:18:51;14.40;99.90
22532;DHT22;11432;46.924;7.114;2024-02-23T13:21:17;13.90;99.90
22532;DHT22;11432;46.924;7.114;2024-02-23T13:23:43;12.50;99.90
22532;DHT22;11432;46.924;7.114;2024-02-23T13:26:09;11.60;99.90
22532;DHT22;11432;46.924;7.114;2024-02-23T13:28:36;11.00;99.90
22532;DHT22;11432;46.924;7.114;2024-02-23T13:31:02;10.50;99.90
22532;DHT22;11432;46.924;7.114;2024-02-23T13:33:28;10.60;99.90
22532;DHT22;11432;46.924;7.114;2024-02-23T13:35:54;10.60;99.90
22532;DHT22;11432;46.924;7.114;2024-02-23T13:38:20;10.50;99.90
22532;DHT22;11432;46.924;7.114;2024-02-23T13:40:46;10.50;99.90
22532;DHT22;11432;46.924;7.114;2024-02-23T13:43:12;10.40;99.90
22532;DHT22;11432;46.924;7.114;2024-02-23T13:45:51;10.30;99.90
22532;DHT22;11432;46.924;7.114;2024-02-23T13:48:18;10.10;99.90
22532;DHT22;11432;46.924;7.114;2024-02-23T13:50:44;9.90;99.90
22532;DHT22;11432;46.924;7.114;2024-02-23T13:53:11;10.00;99.90
22532;DHT22;11432;46.924;7.114;2024-02-23T13:55:38;10.00;99.90
22532;DHT22;11432;46.924;7.114;2024-02-23T13:58:04;9.90;99.90
22532;DHT22;11432;46.924;7.114;2024-02-23T14:00:29;10.00;99.90
22532;DHT22;11432;46.924;7.114;2024-02-23T14:02:55;10.00;99.90
22532;DHT22;11432;46.924;7.114;2024-02-23T14:05:20;9.90;99.90
22532;DHT22;11432;46.924;7.114;2024-02-23T14:07:47;10.10;99.90
22532;DHT22;11432;46.924;7.114;2024-02-23T14:10:13;10.30;99.90
22532;DHT22;11432;46.924;7.114;2024-02-23T14:12:40;10.40;99.90
22532;DHT22;11432;46.924;7.114;2024-02-23T14:15:06;10.30;99.90
22532;DHT22;11432;46.924;7.114;2024-02-23T14:17:32;10.20;99.90
22532;DHT22;11432;46.924;7.114;2024-02-23T14:19:58;10.20;99.90
22532;DHT22;11432;46.924;7.114;2024-02-23T14:22:23;10.50;99.90
22532;DHT22;11432;46.924;7.114;2024-02-23T14:24:49;10.80;99.90
22532;DHT22;11432;46.924;7.114;2024-02-23T14:27:15;10.80;99.90
22532;DHT22;11432;46.924;7.114;2024-02-23T14:29:40;10.70;99.90
22532;DHT22;11432;46.924;7.114;2024-02-23T14:32:06;10.50;99.90
22532;DHT22;11432;46.924;7.114;2024-02-23T14:34:31;10.40;99.90
22532;DHT22;11432;46.924;7.114;2024-02-23T14:36:59;10.60;99.90
22532;DHT22;11432;46.924;7.114;2024-02-23T14:39:24;10.50;99.90
22532;DHT22;11432;46.924;7.114;2024-02-23T14:41:50;10.30;99.90
22532;DHT22;11432;46.924;7.114;2024-02-23T14:44:16;10.30;99.90
22532;DHT22;11432;46.924;7.114;2024-02-23T14:46:41;10.20;99.90
22532;DHT22;11432;46.924;7.114;2024-02-23T14:49:07;10.10;99.90
22532;DHT22;11432;46.924;7.114;2024-02-23T14:51:32;10.00;99.90
22532;DHT22;11432;46.924;7.114;2024-02-23T14:54:00;9.90;99.90
22532;DHT22;11432;46.924;7.114;2024-02-23T14:56:27;9.70;99.90
22532;DHT22;11432;46.924;7.114;2024-02-23T14:58:53;9.60;99.90
22532;DHT22;11432;46.924;7.114;2024-02-23T15:01:18;9.50;99.90
22532;DHT22;11432;46.924;7.114;2024-02-23T15:03:44;9.50;99.90
22532;DHT22;11432;46.924;7.114;2024-02-23T15:06:09;9.30;99.90
22532;DHT22;11432;46.924;7.114;2024-02-23T15:08:36;9.30;99.90
22532;DHT22;11432;46.924;7.114;2024-02-23T15:11:02;9.40;99.90
22532;DHT22;11432;46.924;7.114;2024-02-23T15:13:28;9.50;99.90
22532;DHT22;11432;46.924;7.114;2024-02-23T15:15:53;9.50;99.90
22532;DHT22;11432;46.924;7.114;2024-02-23T15:18:19;9.60;99.90
22532;DHT22;11432;46.924;7.114;2024-02-23T15:20:45;9.50;99.90
22532;DHT22;11432;46.924;7.114;2024-02-23T15:23:12;9.50;99.90
22532;DHT22;11432;46.924;7.114;2024-02-23T15:25:38;9.70;99.90
22532;DHT22;11432;46.924;7.114;2024-02-23T15:28:04;9.70;99.90
22532;DHT22;11432;46.924;7.114;2024-02-23T15:30:30;9.50;99.90
22532;DHT22;11432;46.924;7.114;2024-02-23T15:32:55;9.40;99.90
22532;DHT22;11432;46.924;7.114;2024-02-23T15:35:21;9.40;99.90
22532;DHT22;11432;46.924;7.114;2024-02-23T15:37:47;9.40;99.90
22532;DHT22;11432;46.924;7.114;2024-02-23T15:40:12;9.30;99.90
22532;DHT22;11432;46.924;7.114;2024-02-23T15:42:38;9.20;99.90
22532;DHT22;11432;46.924;7.114;2024-02-23T15:45:04;9.20;99.90
22532;DHT22;11432;46.924;7.114;2024-02-23T15:47:32;9.20;99.90